sensor_id;sensor_type;location;lat;lon;timestamp;P1;durP1;ratioP1;P2;durP2;ratioP2
5519;SDS011;2782;52.362;10.012;2023-05-07T00:01:00;3.10;;;2.80;;
5519;SDS011;2782;52.362;10.012;2023-05-07T00:02:02;3.58;;;2.97;;
5519;SDS011;2782;52.362;10.012;2023-05-07T00:03:05;4.10;;;3.13;;
5519;SDS011;2782;52.362;10.012;2023-05-07T00:04:06;3.85;;;3.45;;
5519;SDS011;2782;52.362;10.012;2023-05-07T00:05:07;4.67;;;3.00;;
5519;SDS011;2782;52.362;10.012;2023-05-07T00:06:09;4.35;;;2.75;;
5519;SDS011;2782;52.362;10.012;2023-05-07T00:07:12;3.70;;;3.35;;
5519;SDS011;2782;52.362;10.012;2023-05-07T00:08:14;3.72;;;3.03;;
5519;SDS011;2782;52.362;10.012;2023-05-07T00:09:15;3.90;;;3.50;;
5519;SDS011;2782;52.362;10.012;2023-05-07T00:10:17;3.40;;;3.10;;
5519;SDS011;2782;52.362;10.012;2023-05-07T00:11:18;3.40;;;2.85;;
5519;SDS011;2782;52.362;10.012;2023-05-07T00:12:20;3.72;;;3.00;;
5519;SDS011;2782;52.362;10.012;2023-05-07T00:13:22;6.22;;;2.80;;
5519;SDS011;2782;52.362;10.012;2023-05-07T00:14:24;6.95;;;3.47;;
5519;SDS011;2782;52.362;10.012;2023-05-07T00:15:25;3.20;;;2.90;;
5519;SDS011;2782;52.362;10.012;2023-05-07T00:16:27;4.97;;;3.17;;
5519;SDS011;2782;52.362;10.012;2023-05-07T00:17:28;3.40;;;2.87;;
5519;SDS011;2782;52.362;10.012;2023-05-07T00:18:32;3.92;;;2.72;;
5519;SDS011;2782;52.362;10.012;2023-05-07T00:19:32;3.17;;;2.85;;
5519;SDS011;2782;52.362;10.012;2023-05-07T00:20:34;3.53;;;3.10;;
5519;SDS011;2782;52.362;10.012;2023-05-07T00:21:35;5.73;;;3.00;;
5519;SDS011;2782;52.362;10.012;2023-05-07T00:22:37;3.83;;;3.28;;
5519;SDS011;2782;52.362;10.012;2023-05-07T00:23:38;3.57;;;3.10;;
5519;SDS011;2782;52.362;10.012;2023-05-07T00:24:40;3.30;;;3.00;;
5519;SDS011;2782;52.362;10.012;2023-05-07T00:25:40;4.60;;;3.10;;
5519;SDS011;2782;52.362;10.012;2023-05-07T00:26:42;2.65;;;2.45;;
5519;SDS011;2782;52.362;10.012;2023-05-07T00:27:43;2.73;;;2.53;;
5519;SDS011;2782;52.362;10.012;2023-05-07T00:28:46;3.58;;;2.92;;
5519;SDS011;2782;52.362;10.012;2023-05-07T00:29:47;3.75;;;3.40;;
5519;SDS011;2782;52.362;10.012;2023-05-07T00:30:49;4.03;;;3.28;;
5519;SDS011;2782;52.362;10.012;2023-05-07T00:31:49;3.90;;;3.17;;
5519;SDS011;2782;52.362;10.012;2023-05-07T00:32:51;3.15;;;2.85;;
5519;SDS011;2782;52.362;10.012;2023-05-07T00:33:53;5.03;;;3.50;;
5519;SDS011;2782;52.362;10.012;2023-05-07T00:34:54;3.40;;;3.10;;
5519;SDS011;2782;52.362;10.012;2023-05-07T00:35:55;6.60;;;2.83;;
5519;SDS011;2782;52.362;10.012;2023-05-07T00:36:57;5.13;;;2.90;;
5519;SDS011;2782;52.362;10.012;2023-05-07T00:37:58;3.63;;;3.20;;
5519;SDS011;2782;52.362;10.012;2023-05-07T00:39:00;4.82;;;3.35;;
5519;SDS011;2782;52.362;10.012;2023-05-07T00:40:03;3.50;;;3.20;;
5519;SDS011;2782;52.362;10.012;2023-05-07T00:41:07;3.13;;;2.88;;
5519;SDS011;2782;52.362;10.012;2023-05-07T00:42:07;3.50;;;3.20;;
5519;SDS011;2782;52.362;10.012;2023-05-07T00:43:09;3.22;;;2.80;;
5519;SDS011;2782;52.362;10.012;2023-05-07T00:44:10;3.43;;;3.13;;
5519;SDS011;2782;52.362;10.012;2023-05-07T00:45:12;3.30;;;3.00;;
5519;SDS011;2782;52.362;10.012;2023-05-07T00:46:13;2.95;;;2.75;;
5519;SDS011;2782;52.362;10.012;2023-05-07T00:47:15;4.70;;;2.95;;
5519;SDS011;2782;52.362;10.012;2023-05-07T00:48:17;3.90;;;3.25;;
5519;SDS011;2782;52.362;10.012;2023-05-07T00:49:20;3.53;;;3.10;;
5519;SDS011;2782;52.362;10.012;2023-05-07T00:50:22;4.30;;;3.25;;
5519;SDS011;2782;52.362;10.012;2023-05-07T00:51:23;3.43;;;3.13;;
5519;SDS011;2782;52.362;10.012;2023-05-07T00:52:27;3.83;;;3.45;;
5519;SDS011;2782;52.362;10.012;2023-05-07T00:53:28;4.78;;;2.78;;
5519;SDS011;2782;52.362;10.012;2023-05-07T00:54:31;3.40;;;3.10;;
5519;SDS011;2782;52.362;10.012;2023-05-07T00:55:32;3.35;;;3.05;;
5519;SDS011;2782;52.362;10.012;2023-05-07T00:56:34;3.58;;;2.95;;
5519;SDS011;2782;52.362;10.012;2023-05-07T00:57:35;4.18;;;3.05;;
5519;SDS011;2782;52.362;10.012;2023-05-07T00:58:39;3.22;;;2.92;;
5519;SDS011;2782;52.362;10.012;2023-05-07T00:59:40;5.18;;;2.95;;
5519;SDS011;2782;52.362;10.012;2023-05-07T01:00:42;3.33;;;3.03;;
5519;SDS011;2782;52.362;10.012;2023-05-07T01:01:43;3.67;;;3.03;;
5519;SDS011;2782;52.362;10.012;2023-05-07T01:02:45;2.83;;;2.60;;
5519;SDS011;2782;52.362;10.012;2023-05-07T01:03:46;3.20;;;2.90;;
5519;SDS011;2782;52.362;10.012;2023-05-07T01:04:49;2.90;;;2.60;;
5519;SDS011;2782;52.362;10.012;2023-05-07T01:05:50;3.15;;;2.85;;
5519;SDS011;2782;52.362;10.012;2023-05-07T01:06:53;4.20;;;3.10;;
5519;SDS011;2782;52.362;10.012;2023-05-07T01:07:56;2.60;;;2.40;;
5519;SDS011;2782;52.362;10.012;2023-05-07T01:08:58;4.93;;;3.35;;
5519;SDS011;2782;52.362;10.012;2023-05-07T01:10:00;4.38;;;3.08;;
5519;SDS011;2782;52.362;10.012;2023-05-07T01:11:03;4.03;;;3.25;;
5519;SDS011;2782;52.362;10.012;2023-05-07T01:12:04;4.57;;;3.07;;
5519;SDS011;2782;52.362;10.012;2023-05-07T01:13:06;3.53;;;3.22;;
5519;SDS011;2782;52.362;10.012;2023-05-07T01:14:06;3.23;;;2.93;;
5519;SDS011;2782;52.362;10.012;2023-05-07T01:15:09;2.67;;;2.47;;
5519;SDS011;2782;52.362;10.012;2023-05-07T01:16:10;4.00;;;3.53;;
5519;SDS011;2782;52.362;10.012;2023-05-07T01:17:12;3.08;;;2.70;;
5519;SDS011;2782;52.362;10.012;2023-05-07T01:18:13;4.80;;;3.63;;
5519;SDS011;2782;52.362;10.012;2023-05-07T01:19:15;3.10;;;2.80;;
5519;SDS011;2782;52.362;10.012;2023-05-07T01:20:19;3.42;;;2.60;;
5519;SDS011;2782;52.362;10.012;2023-05-07T01:21:21;3.08;;;2.78;;
5519;SDS011;2782;52.362;10.012;2023-05-07T01:22:29;3.20;;;2.85;;
5519;SDS011;2782;52.362;10.012;2023-05-07T01:23:32;3.10;;;2.55;;
5519;SDS011;2782;52.362;10.012;2023-05-07T01:24:34;4.90;;;3.55;;
5519;SDS011;2782;52.362;10.012;2023-05-07T01:25:37;3.13;;;2.83;;
5519;SDS011;2782;52.362;10.012;2023-05-07T01:26:38;3.57;;;2.90;;
5519;SDS011;2782;52.362;10.012;2023-05-07T01:27:40;2.80;;;2.60;;
5519;SDS011;2782;52.362;10.012;2023-05-07T01:28:41;4.17;;;3.20;;
5519;SDS011;2782;52.362;10.012;2023-05-07T01:29:42;5.30;;;3.00;;
5519;SDS011;2782;52.362;10.012;2023-05-07T01:30:43;3.10;;;2.80;;
5519;SDS011;2782;52.362;10.012;2023-05-07T01:31:47;2.80;;;2.50;;
5519;SDS011;2782;52.362;10.012;2023-05-07T01:32:51;4.45;;;3.05;;
5519;SDS011;2782;52.362;10.012;2023-05-07T01:33:57;3.35;;;2.90;;
5519;SDS011;2782;52.362;10.012;2023-05-07T01:34:59;3.83;;;3.42;;
5519;SDS011;2782;52.362;10.012;2023-05-07T01:36:03;3.05;;;2.50;;
5519;SDS011;2782;52.362;10.012;2023-05-07T01:37:06;4.00;;;3.38;;
5519;SDS011;2782;52.362;10.012;2023-05-07T01:38:09;3.65;;;2.88;;
5519;SDS011;2782;52.362;10.012;2023-05-07T01:39:10;2.83;;;2.63;;
5519;SDS011;2782;52.362;10.012;2023-05-07T01:40:12;3.70;;;2.55;;
5519;SDS011;2782;52.362;10.012;2023-05-07T01:41:13;3.95;;;3.15;;
5519;SDS011;2782;52.362;10.012;2023-05-07T01:42:15;4.40;;;2.70;;
5519;SDS011;2782;52.362;10.012;2023-05-07T01:43:15;4.90;;;3.37;;
5519;SDS011;2782;52.362;10.012;2023-05-07T01:44:18;2.92;;;2.65;;
5519;SDS011;2782;52.362;10.012;2023-05-07T01:45:19;3.35;;;3.05;;
5519;SDS011;2782;52.362;10.012;2023-05-07T01:46:21;3.53;;;3.15;;
5519;SDS011;2782;52.362;10.012;2023-05-07T01:47:22;5.30;;;3.30;;
5519;SDS011;2782;52.362;10.012;2023-05-07T01:48:24;4.70;;;3.50;;
5519;SDS011;2782;52.362;10.012;2023-05-07T01:49:26;3.50;;;2.58;;
5519;SDS011;2782;52.362;10.012;2023-05-07T01:50:27;3.67;;;3.00;;
5519;SDS011;2782;52.362;10.012;2023-05-07T01:51:29;3.05;;;2.75;;
5519;SDS011;2782;52.362;10.012;2023-05-07T01:52:31;3.45;;;3.15;;
5519;SDS011;2782;52.362;10.012;2023-05-07T01:53:36;3.77;;;3.17;;
5519;SDS011;2782;52.362;10.012;2023-05-07T01:54:38;2.78;;;2.58;;
5519;SDS011;2782;52.362;10.012;2023-05-07T01:55:39;3.20;;;2.63;;
5519;SDS011;2782;52.362;10.012;2023-05-07T01:56:40;2.75;;;2.55;;
5519;SDS011;2782;52.362;10.012;2023-05-07T01:57:41;2.80;;;2.60;;
5519;SDS011;2782;52.362;10.012;2023-05-07T01:58:43;3.13;;;2.83;;
5519;SDS011;2782;52.362;10.012;2023-05-07T01:59:44;2.78;;;2.55;;
5519;SDS011;2782;52.362;10.012;2023-05-07T02:03:53;3.28;;;2.60;;
5519;SDS011;2782;52.362;10.012;2023-05-07T02:04:55;3.35;;;2.80;;
5519;SDS011;2782;52.362;10.012;2023-05-07T02:05:55;3.20;;;3.00;;
5519;SDS011;2782;52.362;10.012;2023-05-07T02:06:57;3.83;;;2.60;;
5519;SDS011;2782;52.362;10.012;2023-05-07T02:07:58;3.70;;;2.93;;
5519;SDS011;2782;52.362;10.012;2023-05-07T02:09:00;3.40;;;3.10;;
5519;SDS011;2782;52.362;10.012;2023-05-07T02:10:01;3.10;;;2.80;;
5519;SDS011;2782;52.362;10.012;2023-05-07T02:11:03;3.20;;;2.95;;
5519;SDS011;2782;52.362;10.012;2023-05-07T02:12:04;4.00;;;3.53;;
5519;SDS011;2782;52.362;10.012;2023-05-07T02:13:06;3.28;;;2.30;;
5519;SDS011;2782;52.362;10.012;2023-05-07T02:14:06;5.30;;;2.70;;
5519;SDS011;2782;52.362;10.012;2023-05-07T02:15:08;3.28;;;2.97;;
5519;SDS011;2782;52.362;10.012;2023-05-07T02:16:10;4.00;;;3.15;;
5519;SDS011;2782;52.362;10.012;2023-05-07T02:17:14;3.53;;;2.67;;
5519;SDS011;2782;52.362;10.012;2023-05-07T02:18:15;4.03;;;2.90;;
5519;SDS011;2782;52.362;10.012;2023-05-07T02:19:17;2.60;;;2.40;;
5519;SDS011;2782;52.362;10.012;2023-05-07T02:20:21;3.15;;;2.80;;
5519;SDS011;2782;52.362;10.012;2023-05-07T02:21:21;3.33;;;2.80;;
5519;SDS011;2782;52.362;10.012;2023-05-07T02:22:23;2.80;;;2.60;;
5519;SDS011;2782;52.362;10.012;2023-05-07T02:23:24;3.07;;;2.77;;
5519;SDS011;2782;52.362;10.012;2023-05-07T02:24:26;3.58;;;2.20;;
5519;SDS011;2782;52.362;10.012;2023-05-07T02:25:27;3.90;;;2.60;;
5519;SDS011;2782;52.362;10.012;2023-05-07T02:26:29;2.40;;;2.20;;
5519;SDS011;2782;52.362;10.012;2023-05-07T02:27:29;2.70;;;2.50;;
5519;SDS011;2782;52.362;10.012;2023-05-07T02:28:31;3.17;;;2.60;;
5519;SDS011;2782;52.362;10.012;2023-05-07T02:29:32;3.03;;;2.73;;
5519;SDS011;2782;52.362;10.012;2023-05-07T02:30:33;2.88;;;2.50;;
5519;SDS011;2782;52.362;10.012;2023-05-07T02:31:34;3.00;;;2.70;;
5519;SDS011;2782;52.362;10.012;2023-05-07T02:32:35;3.20;;;2.90;;
5519;SDS011;2782;52.362;10.012;2023-05-07T02:33:36;3.30;;;3.00;;
5519;SDS011;2782;52.362;10.012;2023-05-07T02:34:38;2.40;;;2.20;;
5519;SDS011;2782;52.362;10.012;2023-05-07T02:35:38;2.77;;;2.57;;
5519;SDS011;2782;52.362;10.012;2023-05-07T02:36:40;2.80;;;2.50;;
5519;SDS011;2782;52.362;10.012;2023-05-07T02:37:41;3.23;;;2.33;;
5519;SDS011;2782;52.362;10.012;2023-05-07T02:38:42;2.80;;;2.22;;
5519;SDS011;2782;52.362;10.012;2023-05-07T02:39:44;2.53;;;2.33;;
5519;SDS011;2782;52.362;10.012;2023-05-07T02:40:46;2.83;;;2.30;;
5519;SDS011;2782;52.362;10.012;2023-05-07T02:41:46;3.97;;;2.60;;
5519;SDS011;2782;52.362;10.012;2023-05-07T02:42:48;2.67;;;2.47;;
5519;SDS011;2782;52.362;10.012;2023-05-07T02:43:48;3.90;;;3.30;;
5519;SDS011;2782;52.362;10.012;2023-05-07T02:44:50;2.85;;;2.65;;
5519;SDS011;2782;52.362;10.012;2023-05-07T02:45:59;2.60;;;2.40;;
5519;SDS011;2782;52.362;10.012;2023-05-07T02:47:01;3.45;;;2.42;;
5519;SDS011;2782;52.362;10.012;2023-05-07T02:48:02;2.90;;;2.60;;
5519;SDS011;2782;52.362;10.012;2023-05-07T02:49:05;2.95;;;2.67;;
5519;SDS011;2782;52.362;10.012;2023-05-07T02:50:06;2.60;;;2.40;;
5519;SDS011;2782;52.362;10.012;2023-05-07T02:51:08;2.88;;;2.50;;
5519;SDS011;2782;52.362;10.012;2023-05-07T02:52:09;2.63;;;2.43;;
5519;SDS011;2782;52.362;10.012;2023-05-07T02:53:10;3.03;;;2.72;;
5519;SDS011;2782;52.362;10.012;2023-05-07T02:54:11;2.70;;;2.43;;
5519;SDS011;2782;52.362;10.012;2023-05-07T02:55:14;2.70;;;2.50;;
5519;SDS011;2782;52.362;10.012;2023-05-07T02:56:15;3.03;;;2.70;;
5519;SDS011;2782;52.362;10.012;2023-05-07T02:57:16;2.60;;;2.40;;
5519;SDS011;2782;52.362;10.012;2023-05-07T02:58:17;2.53;;;2.33;;
5519;SDS011;2782;52.362;10.012;2023-05-07T02:59:18;2.42;;;2.22;;
5519;SDS011;2782;52.362;10.012;2023-05-07T03:00:19;3.00;;;2.70;;
5519;SDS011;2782;52.362;10.012;2023-05-07T03:01:22;2.50;;;2.30;;
5519;SDS011;2782;52.362;10.012;2023-05-07T03:02:22;2.80;;;2.60;;
5519;SDS011;2782;52.362;10.012;2023-05-07T03:03:24;2.47;;;2.28;;
5519;SDS011;2782;52.362;10.012;2023-05-07T03:04:25;2.97;;;2.67;;
5519;SDS011;2782;52.362;10.012;2023-05-07T03:05:27;3.38;;;2.25;;
5519;SDS011;2782;52.362;10.012;2023-05-07T03:06:27;2.20;;;2.00;;
5519;SDS011;2782;52.362;10.012;2023-05-07T03:07:29;5.18;;;2.75;;
5519;SDS011;2782;52.362;10.012;2023-05-07T03:08:29;3.10;;;2.80;;
5519;SDS011;2782;52.362;10.012;2023-05-07T03:09:31;2.83;;;2.60;;
5519;SDS011;2782;52.362;10.012;2023-05-07T03:10:33;2.50;;;2.27;;
5519;SDS011;2782;52.362;10.012;2023-05-07T03:11:35;2.60;;;2.40;;
5519;SDS011;2782;52.362;10.012;2023-05-07T03:12:35;3.53;;;2.73;;
5519;SDS011;2782;52.362;10.012;2023-05-07T03:13:37;2.50;;;2.30;;
5519;SDS011;2782;52.362;10.012;2023-05-07T03:14:37;2.77;;;2.33;;
5519;SDS011;2782;52.362;10.012;2023-05-07T03:15:39;2.47;;;2.25;;
5519;SDS011;2782;52.362;10.012;2023-05-07T03:16:40;2.20;;;2.00;;
5519;SDS011;2782;52.362;10.012;2023-05-07T03:17:41;3.15;;;2.80;;
5519;SDS011;2782;52.362;10.012;2023-05-07T03:18:42;2.70;;;2.50;;
5519;SDS011;2782;52.362;10.012;2023-05-07T03:19:44;2.50;;;2.30;;
5519;SDS011;2782;52.362;10.012;2023-05-07T03:20:44;2.90;;;2.70;;
5519;SDS011;2782;52.362;10.012;2023-05-07T03:21:46;3.78;;;2.60;;
5519;SDS011;2782;52.362;10.012;2023-05-07T03:22:47;2.47;;;2.23;;
5519;SDS011;2782;52.362;10.012;2023-05-07T03:23:49;3.75;;;2.60;;
5519;SDS011;2782;52.362;10.012;2023-05-07T03:24:49;2.07;;;1.87;;
5519;SDS011;2782;52.362;10.012;2023-05-07T03:25:52;3.08;;;2.40;;
5519;SDS011;2782;52.362;10.012;2023-05-07T03:26:53;2.90;;;2.40;;
5519;SDS011;2782;52.362;10.012;2023-05-07T03:27:54;3.53;;;2.60;;
5519;SDS011;2782;52.362;10.012;2023-05-07T03:28:55;2.60;;;2.40;;
5519;SDS011;2782;52.362;10.012;2023-05-07T03:29:57;4.30;;;2.75;;
5519;SDS011;2782;52.362;10.012;2023-05-07T03:30:57;2.47;;;1.90;;
5519;SDS011;2782;52.362;10.012;2023-05-07T03:31:59;2.20;;;2.10;;
5519;SDS011;2782;52.362;10.012;2023-05-07T03:33:00;2.67;;;2.47;;
5519;SDS011;2782;52.362;10.012;2023-05-07T03:34:01;1.92;;;1.83;;
5519;SDS011;2782;52.362;10.012;2023-05-07T03:35:02;3.90;;;2.30;;
5519;SDS011;2782;52.362;10.012;2023-05-07T03:36:04;2.83;;;2.50;;
5519;SDS011;2782;52.362;10.012;2023-05-07T03:37:06;2.25;;;1.83;;
5519;SDS011;2782;52.362;10.012;2023-05-07T03:38:07;2.90;;;1.93;;
5519;SDS011;2782;52.362;10.012;2023-05-07T03:39:08;2.55;;;2.35;;
5519;SDS011;2782;52.362;10.012;2023-05-07T03:40:09;2.80;;;2.43;;
5519;SDS011;2782;52.362;10.012;2023-05-07T03:41:13;2.30;;;2.20;;
5519;SDS011;2782;52.362;10.012;2023-05-07T03:42:14;2.50;;;2.30;;
5519;SDS011;2782;52.362;10.012;2023-05-07T03:43:16;2.30;;;2.10;;
5519;SDS011;2782;52.362;10.012;2023-05-07T03:44:16;2.17;;;2.00;;
5519;SDS011;2782;52.362;10.012;2023-05-07T03:45:18;2.53;;;2.28;;
5519;SDS011;2782;52.362;10.012;2023-05-07T03:46:19;2.40;;;2.00;;
5519;SDS011;2782;52.362;10.012;2023-05-07T03:47:21;2.30;;;2.20;;
5519;SDS011;2782;52.362;10.012;2023-05-07T03:48:21;2.33;;;1.80;;
5519;SDS011;2782;52.362;10.012;2023-05-07T03:49:23;2.28;;;2.08;;
5519;SDS011;2782;52.362;10.012;2023-05-07T03:50:23;2.73;;;2.07;;
5519;SDS011;2782;52.362;10.012;2023-05-07T03:51:25;2.38;;;2.17;;
5519;SDS011;2782;52.362;10.012;2023-05-07T03:52:26;2.20;;;2.00;;
5519;SDS011;2782;52.362;10.012;2023-05-07T03:53:27;1.92;;;1.83;;
5519;SDS011;2782;52.362;10.012;2023-05-07T03:54:28;2.40;;;2.13;;
5519;SDS011;2782;52.362;10.012;2023-05-07T03:55:29;2.63;;;2.00;;
5519;SDS011;2782;52.362;10.012;2023-05-07T03:56:31;2.57;;;2.10;;
5519;SDS011;2782;52.362;10.012;2023-05-07T03:57:33;2.38;;;2.17;;
5519;SDS011;2782;52.362;10.012;2023-05-07T03:58:33;4.13;;;2.63;;
5519;SDS011;2782;52.362;10.012;2023-05-07T03:59:35;22.63;;;2.50;;
5519;SDS011;2782;52.362;10.012;2023-05-07T04:00:36;2.90;;;2.20;;
5519;SDS011;2782;52.362;10.012;2023-05-07T04:01:38;1.60;;;1.50;;
5519;SDS011;2782;52.362;10.012;2023-05-07T04:02:38;2.60;;;1.90;;
5519;SDS011;2782;52.362;10.012;2023-05-07T04:03:40;2.70;;;2.15;;
5519;SDS011;2782;52.362;10.012;2023-05-07T04:04:41;2.40;;;2.20;;
5519;SDS011;2782;52.362;10.012;2023-05-07T04:05:42;2.15;;;2.00;;
5519;SDS011;2782;52.362;10.012;2023-05-07T04:06:43;2.27;;;2.07;;
5519;SDS011;2782;52.362;10.012;2023-05-07T04:07:45;1.90;;;1.80;;
5519;SDS011;2782;52.362;10.012;2023-05-07T04:08:46;2.40;;;1.87;;
5519;SDS011;2782;52.362;10.012;2023-05-07T04:09:47;5.30;;;2.10;;
5519;SDS011;2782;52.362;10.012;2023-05-07T04:10:48;2.40;;;2.20;;
5519;SDS011;2782;52.362;10.012;2023-05-07T04:11:56;2.20;;;2.10;;
5519;SDS011;2782;52.362;10.012;2023-05-07T04:12:56;2.20;;;2.10;;
5519;SDS011;2782;52.362;10.012;2023-05-07T04:13:58;1.75;;;1.60;;
5519;SDS011;2782;52.362;10.012;2023-05-07T04:14:59;2.47;;;2.03;;
5519;SDS011;2782;52.362;10.012;2023-05-07T04:16:01;2.25;;;2.05;;
5519;SDS011;2782;52.362;10.012;2023-05-07T04:17:02;1.90;;;1.80;;
5519;SDS011;2782;52.362;10.012;2023-05-07T04:18:04;1.90;;;1.70;;
5519;SDS011;2782;52.362;10.012;2023-05-07T04:19:05;2.43;;;2.23;;
5519;SDS011;2782;52.362;10.012;2023-05-07T04:20:08;2.08;;;1.98;;
5519;SDS011;2782;52.362;10.012;2023-05-07T04:21:13;2.40;;;2.20;;
5519;SDS011;2782;52.362;10.012;2023-05-07T04:22:15;2.17;;;1.88;;
5519;SDS011;2782;52.362;10.012;2023-05-07T04:23:16;2.47;;;2.00;;
5519;SDS011;2782;52.362;10.012;2023-05-07T04:24:18;2.47;;;2.28;;
5519;SDS011;2782;52.362;10.012;2023-05-07T04:25:18;2.40;;;2.20;;
5519;SDS011;2782;52.362;10.012;2023-05-07T04:26:20;2.35;;;2.15;;
5519;SDS011;2782;52.362;10.012;2023-05-07T04:27:22;2.07;;;1.97;;
5519;SDS011;2782;52.362;10.012;2023-05-07T04:28:24;1.70;;;1.60;;
5519;SDS011;2782;52.362;10.012;2023-05-07T04:29:25;1.90;;;1.80;;
5519;SDS011;2782;52.362;10.012;2023-05-07T04:30:28;1.95;;;1.85;;
5519;SDS011;2782;52.362;10.012;2023-05-07T04:31:29;2.23;;;2.00;;
5519;SDS011;2782;52.362;10.012;2023-05-07T04:32:30;1.90;;;1.70;;
5519;SDS011;2782;52.362;10.012;2023-05-07T04:33:31;1.98;;;1.80;;
5519;SDS011;2782;52.362;10.012;2023-05-07T04:34:33;1.75;;;1.65;;
5519;SDS011;2782;52.362;10.012;2023-05-07T04:35:34;2.33;;;2.13;;
5519;SDS011;2782;52.362;10.012;2023-05-07T04:36:36;2.20;;;2.00;;
5519;SDS011;2782;52.362;10.012;2023-05-07T04:37:37;2.13;;;1.92;;
5519;SDS011;2782;52.362;10.012;2023-05-07T04:38:39;2.30;;;2.00;;
5519;SDS011;2782;52.362;10.012;2023-05-07T04:39:40;2.10;;;1.77;;
5519;SDS011;2782;52.362;10.012;2023-05-07T04:40:42;1.90;;;1.80;;
5519;SDS011;2782;52.362;10.012;2023-05-07T04:41:43;2.30;;;2.00;;
5519;SDS011;2782;52.362;10.012;2023-05-07T04:42:46;2.22;;;2.03;;
5519;SDS011;2782;52.362;10.012;2023-05-07T04:43:46;1.65;;;1.55;;
5519;SDS011;2782;52.362;10.012;2023-05-07T04:44:48;2.20;;;2.10;;
5519;SDS011;2782;52.362;10.012;2023-05-07T04:45:53;2.00;;;1.90;;
5519;SDS011;2782;52.362;10.012;2023-05-07T04:46:54;2.85;;;1.75;;
5519;SDS011;2782;52.362;10.012;2023-05-07T04:47:55;1.90;;;1.80;;
5519;SDS011;2782;52.362;10.012;2023-05-07T04:48:56;4.28;;;2.20;;
5519;SDS011;2782;52.362;10.012;2023-05-07T04:49:57;2.07;;;1.87;;
5519;SDS011;2782;52.362;10.012;2023-05-07T04:50:59;2.00;;;1.90;;
5519;SDS011;2782;52.362;10.012;2023-05-07T04:52:00;1.70;;;1.60;;
5519;SDS011;2782;52.362;10.012;2023-05-07T04:53:03;2.08;;;1.92;;
5519;SDS011;2782;52.362;10.012;2023-05-07T04:54:04;1.90;;;1.80;;
5519;SDS011;2782;52.362;10.012;2023-05-07T04:55:05;2.13;;;2.00;;
5519;SDS011;2782;52.362;10.012;2023-05-07T04:56:07;2.05;;;1.90;;
5519;SDS011;2782;52.362;10.012;2023-05-07T04:57:08;1.60;;;1.50;;
5519;SDS011;2782;52.362;10.012;2023-05-07T04:58:10;1.97;;;1.77;;
5519;SDS011;2782;52.362;10.012;2023-05-07T04:59:12;2.03;;;1.83;;
5519;SDS011;2782;52.362;10.012;2023-05-07T05:00:13;1.80;;;1.67;;
5519;SDS011;2782;52.362;10.012;2023-05-07T05:01:14;2.17;;;1.98;;
5519;SDS011;2782;52.362;10.012;2023-05-07T05:02:16;1.30;;;1.20;;
5519;SDS011;2782;52.362;10.012;2023-05-07T05:03:16;1.70;;;1.60;;
5519;SDS011;2782;52.362;10.012;2023-05-07T05:04:18;2.28;;;2.10;;
5519;SDS011;2782;52.362;10.012;2023-05-07T05:05:19;2.37;;;2.00;;
5519;SDS011;2782;52.362;10.012;2023-05-07T05:06:20;1.55;;;1.45;;
5519;SDS011;2782;52.362;10.012;2023-05-07T05:07:21;1.60;;;1.40;;
5519;SDS011;2782;52.362;10.012;2023-05-07T05:08:22;1.83;;;1.73;;
5519;SDS011;2782;52.362;10.012;2023-05-07T05:09:23;1.60;;;1.50;;
5519;SDS011;2782;52.362;10.012;2023-05-07T05:10:25;1.80;;;1.70;;
5519;SDS011;2782;52.362;10.012;2023-05-07T05:11:25;1.33;;;1.23;;
5519;SDS011;2782;52.362;10.012;2023-05-07T05:12:27;2.38;;;1.70;;
5519;SDS011;2782;52.362;10.012;2023-05-07T05:13:29;1.70;;;1.47;;
5519;SDS011;2782;52.362;10.012;2023-05-07T05:14:31;1.98;;;1.67;;
5519;SDS011;2782;52.362;10.012;2023-05-07T05:15:31;1.53;;;1.43;;
5519;SDS011;2782;52.362;10.012;2023-05-07T05:16:33;1.60;;;1.50;;
5519;SDS011;2782;52.362;10.012;2023-05-07T05:17:34;1.80;;;1.70;;
5519;SDS011;2782;52.362;10.012;2023-05-07T05:18:36;1.50;;;1.40;;
5519;SDS011;2782;52.362;10.012;2023-05-07T05:19:38;3.35;;;1.70;;
5519;SDS011;2782;52.362;10.012;2023-05-07T05:20:39;2.97;;;1.80;;
5519;SDS011;2782;52.362;10.012;2023-05-07T05:21:40;1.47;;;1.37;;
5519;SDS011;2782;52.362;10.012;2023-05-07T05:22:42;1.60;;;1.50;;
5519;SDS011;2782;52.362;10.012;2023-05-07T05:23:42;2.07;;;1.90;;
5519;SDS011;2782;52.362;10.012;2023-05-07T05:24:44;1.63;;;1.52;;
5519;SDS011;2782;52.362;10.012;2023-05-07T05:25:46;1.48;;;1.38;;
5519;SDS011;2782;52.362;10.012;2023-05-07T05:26:46;1.77;;;1.67;;
5519;SDS011;2782;52.362;10.012;2023-05-07T05:27:48;1.63;;;1.52;;
5519;SDS011;2782;52.362;10.012;2023-05-07T05:28:50;1.80;;;1.70;;
5519;SDS011;2782;52.362;10.012;2023-05-07T05:29:51;1.45;;;1.35;;
5519;SDS011;2782;52.362;10.012;2023-05-07T05:30:52;2.67;;;1.47;;
5519;SDS011;2782;52.362;10.012;2023-05-07T05:31:54;2.05;;;1.42;;
5519;SDS011;2782;52.362;10.012;2023-05-07T05:32:55;1.75;;;1.63;;
5519;SDS011;2782;52.362;10.012;2023-05-07T05:33:56;1.40;;;1.30;;
5519;SDS011;2782;52.362;10.012;2023-05-07T05:34:57;1.53;;;1.33;;
5519;SDS011;2782;52.362;10.012;2023-05-07T05:35:59;1.77;;;1.67;;
5519;SDS011;2782;52.362;10.012;2023-05-07T05:36:59;1.83;;;1.73;;
5519;SDS011;2782;52.362;10.012;2023-05-07T05:38:01;5.90;;;1.90;;
5519;SDS011;2782;52.362;10.012;2023-05-07T05:39:02;4.25;;;3.05;;
5519;SDS011;2782;52.362;10.012;2023-05-07T05:40:04;2.28;;;1.83;;
5519;SDS011;2782;52.362;10.012;2023-05-07T05:41:05;4.95;;;2.63;;
5519;SDS011;2782;52.362;10.012;2023-05-07T05:42:07;3.88;;;2.47;;
5519;SDS011;2782;52.362;10.012;2023-05-07T05:43:08;3.33;;;2.40;;
5519;SDS011;2782;52.362;10.012;2023-05-07T05:44:10;6.30;;;2.65;;
5519;SDS011;2782;52.362;10.012;2023-05-07T05:45:11;6.78;;;2.00;;
5519;SDS011;2782;52.362;10.012;2023-05-07T05:46:13;5.35;;;2.22;;
5519;SDS011;2782;52.362;10.012;2023-05-07T05:47:13;3.43;;;1.93;;
5519;SDS011;2782;52.362;10.012;2023-05-07T05:48:15;4.43;;;2.40;;
5519;SDS011;2782;52.362;10.012;2023-05-07T05:49:16;5.63;;;2.70;;
5519;SDS011;2782;52.362;10.012;2023-05-07T05:50:17;2.75;;;1.60;;
5519;SDS011;2782;52.362;10.012;2023-05-07T05:51:18;2.67;;;2.10;;
5519;SDS011;2782;52.362;10.012;2023-05-07T05:52:19;1.92;;;1.63;;
5519;SDS011;2782;52.362;10.012;2023-05-07T05:53:23;3.30;;;2.28;;
5519;SDS011;2782;52.362;10.012;2023-05-07T05:54:25;2.00;;;1.60;;
5519;SDS011;2782;52.362;10.012;2023-05-07T05:55:26;3.33;;;2.10;;
5519;SDS011;2782;52.362;10.012;2023-05-07T05:56:27;2.58;;;1.88;;
5519;SDS011;2782;52.362;10.012;2023-05-07T05:57:28;3.83;;;2.20;;
5519;SDS011;2782;52.362;10.012;2023-05-07T05:58:30;3.03;;;2.72;;
5519;SDS011;2782;52.362;10.012;2023-05-07T05:59:32;3.40;;;2.30;;
5519;SDS011;2782;52.362;10.012;2023-05-07T06:00:33;4.90;;;2.45;;
5519;SDS011;2782;52.362;10.012;2023-05-07T06:01:34;3.63;;;2.40;;
5519;SDS011;2782;52.362;10.012;2023-05-07T06:02:36;2.58;;;2.35;;
5519;SDS011;2782;52.362;10.012;2023-05-07T06:03:36;2.10;;;1.90;;
5519;SDS011;2782;52.362;10.012;2023-05-07T06:04:38;4.60;;;2.42;;
5519;SDS011;2782;52.362;10.012;2023-05-07T06:05:39;2.50;;;2.30;;
5519;SDS011;2782;52.362;10.012;2023-05-07T06:06:41;2.72;;;2.53;;
5519;SDS011;2782;52.362;10.012;2023-05-07T06:07:42;2.50;;;2.03;;
5519;SDS011;2782;52.362;10.012;2023-05-07T06:08:43;3.22;;;2.70;;
5519;SDS011;2782;52.362;10.012;2023-05-07T06:09:44;6.10;;;2.13;;
5519;SDS011;2782;52.362;10.012;2023-05-07T06:10:45;4.07;;;2.75;;
5519;SDS011;2782;52.362;10.012;2023-05-07T06:11:46;4.40;;;2.80;;
5519;SDS011;2782;52.362;10.012;2023-05-07T06:12:48;4.20;;;3.05;;
5519;SDS011;2782;52.362;10.012;2023-05-07T06:13:48;4.57;;;2.60;;
5519;SDS011;2782;52.362;10.012;2023-05-07T06:14:51;7.20;;;2.33;;
5519;SDS011;2782;52.362;10.012;2023-05-07T06:15:52;7.47;;;2.88;;
5519;SDS011;2782;52.362;10.012;2023-05-07T06:16:53;6.53;;;2.60;;
5519;SDS011;2782;52.362;10.012;2023-05-07T06:17:54;3.50;;;2.63;;
5519;SDS011;2782;52.362;10.012;2023-05-07T06:18:57;3.63;;;2.75;;
5519;SDS011;2782;52.362;10.012;2023-05-07T06:19:58;5.40;;;2.40;;